Time;durP1;ratioP1;P1;durP2;ratioP2;P2;SDS_P1;SDS_P2;PMS_P1;PMS_P2;Temp;Humidity;BMP_temperature;BMP_pressure;BME280_temperature;BME280_humidity;BME280_pressure;Samples;Min_cycle;Max_cycle;Signal;HPM_P1;HPM_P2
2022/08/21 00:02:16;;;;;;;10.52;3.60;;;24.50;99.90;;;;;;5050901;28;20032;-70
2022/08/21 00:04:43;;;;;;;16.13;3.63;;;24.50;99.90;;;;;;5050295;28;20022;-69
2022/08/21 00:07:09;;;;;;;14.32;4.10;;;24.60;99.90;;;;;;5050578;28;20063;-70
2022/08/21 00:09:35;;;;;;;8.13;3.15;;;24.60;99.90;;;;;;5050232;28;20109;-70
2022/08/21 00:12:01;;;;;;;14.80;3.55;;;24.60;99.90;;;;;;5050403;28;20036;-69
2022/08/21 00:14:27;;;;;;;11.70;3.03;;;24.60;99.90;;;;;;5050468;28;20029;-70
2022/08/21 00:16:53;;;;;;;9.77;2.85;;;24.70;99.90;;;;;;5050329;28;20035;-69
2022/08/21 00:19:21;;;;;;;11.77;3.13;;;24.80;99.90;;;;;;5050357;28;20104;-69
2022/08/21 00:21:47;;;;;;;9.43;3.22;;;24.80;99.90;;;;;;5048594;28;20068;-70
2022/08/21 00:24:13;;;;;;;9.95;3.20;;;24.70;99.90;;;;;;5050256;28;20025;-69
2022/08/21 00:26:39;;;;;;;18.48;3.60;;;24.70;99.90;;;;;;5050021;28;20031;-69
2022/08/21 00:29:05;;;;;;;14.98;4.07;;;24.60;99.90;;;;;;5049841;28;20049;-69
2022/08/21 00:31:33;;;;;;;11.20;3.40;;;24.60;99.90;;;;;;5048801;28;20057;-70
2022/08/21 00:33:59;;;;;;;11.70;3.50;;;24.50;99.90;;;;;;5050402;28;20013;-70
2022/08/21 00:36:25;;;;;;;14.30;3.80;;;24.60;99.90;;;;;;5048788;28;20045;-69
2022/08/21 00:38:51;;;;;;;13.10;3.60;;;24.60;99.90;;;;;;5050462;28;20013;-70
2022/08/21 00:41:17;;;;;;;12.15;4.03;;;24.50;99.90;;;;;;5050282;28;20027;-69
2022/08/21 00:43:43;;;;;;;12.45;4.38;;;24.50;99.90;;;;;;5049986;28;20075;-69
2022/08/21 00:46:09;;;;;;;14.13;4.38;;;24.50;99.90;;;;;;5050218;28;20031;-69
2022/08/21 00:48:35;;;;;;;12.02;4.60;;;24.40;99.90;;;;;;5050181;28;20079;-69
2022/08/21 00:51:06;;;;;;;14.90;4.07;;;24.50;99.90;;;;;;5050232;28;20060;-69
2022/08/21 00:53:34;;;;;;;13.65;3.97;;;24.50;99.90;;;;;;5049808;28;20021;-69
2022/08/21 00:56:02;;;;;;;10.88;4.00;;;24.50;99.90;;;;;;5049903;28;20085;-69
2022/08/21 00:58:30;;;;;;;13.65;3.95;;;24.50;99.90;;;;;;5049817;28;20063;-69
2022/08/21 01:00:57;;;;;;;10.35;3.90;;;24.40;99.90;;;;;;5048412;28;20330;-69
2022/08/21 01:03:27;;;;;;;11.70;3.60;;;24.30;99.90;;;;;;5049753;28;20021;-69
2022/08/21 01:05:54;;;;;;;13.20;3.40;;;24.30;99.90;;;;;;5049673;28;20029;-69
2022/08/21 01:08:21;;;;;;;11.23;3.20;;;24.30;99.90;;;;;;5053428;28;20120;-69
2022/08/21 01:10:48;;;;;;;11.77;3.75;;;24.20;99.90;;;;;;5053570;28;20033;-69
2022/08/21 01:13:17;;;;;;;13.75;3.38;;;24.20;99.90;;;;;;5053529;28;20021;-68
2022/08/21 01:15:48;;;;;;;13.63;2.70;;;24.10;99.90;;;;;;5053389;28;20047;-69
2022/08/21 01:18:15;;;;;;;9.93;3.30;;;24.00;99.90;;;;;;5053364;28;20029;-69
2022/08/21 01:21:23;;;;;;;12.15;3.60;;;23.90;99.90;;;;;;5053127;28;20039;-69
2022/08/21 01:23:52;;;;;;;11.13;3.72;;;23.70;99.90;;;;;;5031100;28;20076;-69
2022/08/21 01:26:22;;;;;;;9.85;3.17;;;23.60;99.90;;;;;;5031012;28;20108;-69
2022/08/21 01:29:23;;;;;;;11.75;3.20;;;23.60;99.90;;;;;;5030683;28;20065;-69
2022/08/21 01:31:49;;;;;;;9.02;3.10;;;23.50;99.90;;;;;;5017933;28;20026;-69
2022/08/21 01:34:15;;;;;;;9.68;2.85;;;23.60;99.90;;;;;;5031042;28;20532;-69
2022/08/21 01:36:43;;;;;;;10.70;2.70;;;23.60;99.90;;;;;;5031032;28;20044;-69
2022/08/21 01:39:09;;;;;;;13.60;3.30;;;23.60;99.90;;;;;;5030590;28;20033;-70
2022/08/21 01:41:35;;;;;;;12.05;3.35;;;23.60;99.90;;;;;;5030567;28;20123;-69
2022/08/21 01:44:02;;;;;;;13.63;2.85;;;23.70;99.90;;;;;;5030664;28;20176;-69
2022/08/21 01:46:29;;;;;;;8.50;2.63;;;23.70;99.90;;;;;;5014007;28;20471;-69
2022/08/21 01:48:55;;;;;;;8.70;2.65;;;23.80;99.90;;;;;;5013927;28;20033;-70
2022/08/21 01:51:21;;;;;;;10.52;3.10;;;23.80;99.90;;;;;;5030656;28;20135;-70
2022/08/21 01:53:47;;;;;;;9.45;2.45;;;23.80;99.90;;;;;;5030611;28;20072;-69
2022/08/21 01:56:16;;;;;;;13.07;2.90;;;23.90;99.90;;;;;;5030726;28;20041;-69
2022/08/21 01:58:44;;;;;;;8.23;2.40;;;23.90;99.90;;;;;;5051491;28;20037;-69
2022/08/21 02:01:10;;;;;;;10.75;2.50;;;23.70;99.90;;;;;;5052384;28;20029;-69
2022/08/21 02:03:37;;;;;;;10.00;2.95;;;23.70;99.90;;;;;;5052477;28;20067;-69
2022/08/21 02:06:05;;;;;;;8.57;2.38;;;23.60;99.90;;;;;;5052442;28;20044;-69
2022/08/21 02:08:31;;;;;;;9.38;2.92;;;23.60;99.90;;;;;;5052836;28;20322;-69
2022/08/21 02:10:57;;;;;;;10.38;2.60;;;23.60;99.90;;;;;;5052422;28;20048;-69
2022/08/21 02:13:23;;;;;;;10.15;2.50;;;23.60;99.90;;;;;;5052283;28;20024;-69
2022/08/21 02:15:50;;;;;;;11.48;3.08;;;23.50;99.90;;;;;;5050879;28;20055;-69
2022/08/21 02:18:16;;;;;;;9.93;3.22;;;23.50;99.90;;;;;;5051942;28;20021;-70
2022/08/21 02:20:45;;;;;;;16.02;3.60;;;23.50;99.90;;;;;;5052146;28;20041;-68
2022/08/21 02:23:13;;;;;;;15.10;4.10;;;23.50;99.90;;;;;;5052351;28;20063;-69
2022/08/21 02:25:39;;;;;;;16.92;4.55;;;23.50;99.90;;;;;;5052777;28;20029;-70
2022/08/21 02:28:08;;;;;;;12.95;5.70;;;23.60;99.90;;;;;;5051849;28;20167;-70
2022/08/21 02:30:38;;;;;;;14.57;6.18;;;23.70;99.90;;;;;;5052184;28;20024;-70
2022/08/21 02:33:06;;;;;;;16.48;6.35;;;23.70;99.90;;;;;;5052064;28;20017;-69
2022/08/21 02:35:32;;;;;;;15.02;5.57;;;23.70;99.90;;;;;;5052309;28;20110;-69
2022/08/21 02:38:01;;;;;;;16.80;6.00;;;23.80;99.90;;;;;;5051866;28;20099;-70
2022/08/21 02:40:31;;;;;;;14.20;5.90;;;23.80;99.90;;;;;;5051863;28;20108;-70
2022/08/21 02:42:58;;;;;;;16.33;6.22;;;23.80;99.90;;;;;;5051797;28;20040;-69
2022/08/21 02:45:24;;;;;;;12.95;5.75;;;23.80;99.90;;;;;;5052065;28;20029;-69
2022/08/21 02:47:53;;;;;;;12.90;5.55;;;23.70;99.90;;;;;;5052030;28;20028;-70
2022/08/21 02:50:25;;;;;;;14.30;5.40;;;23.70;99.90;;;;;;5051755;28;20025;-69
2022/08/21 02:52:52;;;;;;;13.07;4.45;;;23.70;99.90;;;;;;5051819;28;20025;-69
2022/08/21 02:55:22;;;;;;;;;;;23.80;99.90;;;;;;5051793;28;20025;-69
2022/08/21 02:57:48;;;;;;;8.85;3.90;;;23.70;99.90;;;;;;5051724;28;20244;-69
2022/08/21 03:00:16;;;;;;;12.60;4.30;;;23.70;99.90;;;;;;5051370;28;20032;-69
2022/08/21 03:02:45;;;;;;;11.85;4.10;;;23.70;99.90;;;;;;5051567;28;20056;-68
2022/08/21 03:05:11;;;;;;;9.85;3.63;;;23.60;99.90;;;;;;5051240;28;20108;-69
2022/08/21 03:07:39;;;;;;;9.02;3.05;;;23.60;99.90;;;;;;5051630;28;20025;-71
2022/08/21 03:10:06;;;;;;;12.07;3.72;;;23.50;99.90;;;;;;5051227;28;20021;-70
2022/08/21 03:12:32;;;;;;;13.43;3.55;;;23.40;99.90;;;;;;5051277;28;20121;-69
2022/08/21 03:14:58;;;;;;;15.65;3.78;;;23.30;99.90;;;;;;5050895;28;20131;-70
2022/08/21 03:17:25;;;;;;;11.48;4.18;;;23.20;99.90;;;;;;5051025;28;20025;-71
2022/08/21 03:19:51;;;;;;;14.45;3.63;;;23.20;99.90;;;;;;5051105;28;20020;-70
2022/08/21 03:22:17;;;;;;;10.75;3.92;;;23.10;99.90;;;;;;5051037;28;20037;-70
2022/08/21 03:24:45;;;;;;;11.25;3.58;;;23.20;99.90;;;;;;5051197;28;20032;-69
2022/08/21 03:27:12;;;;;;;9.65;3.25;;;23.20;99.90;;;;;;5050723;28;20081;-70
2022/08/21 03:29:39;;;;;;;14.63;3.33;;;23.30;99.90;;;;;;5050239;28;20080;-69
2022/08/21 03:32:09;;;;;;;9.43;3.03;;;23.40;99.90;;;;;;5050783;28;20056;-69
2022/08/21 03:34:36;;;;;;;11.60;3.33;;;23.40;99.90;;;;;;5050643;28;20025;-69
2022/08/21 03:37:06;;;;;;;14.18;3.00;;;23.30;99.90;;;;;;5049244;28;20029;-69
2022/08/21 03:39:33;;;;;;;8.23;2.78;;;23.30;99.90;;;;;;5051108;28;20055;-69
2022/08/21 03:41:59;;;;;;;13.18;2.80;;;23.20;99.90;;;;;;5050951;28;20452;-69
2022/08/21 03:44:28;;;;;;;8.65;2.83;;;23.20;99.90;;;;;;5050908;28;20029;-69
2022/08/21 03:46:55;;;;;;;11.30;2.67;;;23.10;99.90;;;;;;5050553;28;20406;-69
2022/08/21 03:49:22;;;;;;;6.63;2.85;;;23.10;99.90;;;;;;5050569;28;20074;-70
2022/08/21 03:51:48;;;;;;;9.90;2.80;;;23.00;99.90;;;;;;5050441;28;20021;-69
2022/08/21 03:54:14;;;;;;;9.65;2.63;;;23.00;99.90;;;;;;5050360;28;20053;-69
2022/08/21 03:56:40;;;;;;;8.27;2.65;;;23.00;99.90;;;;;;5050275;28;20040;-69
2022/08/21 03:59:06;;;;;;;9.77;3.00;;;23.00;99.90;;;;;;5050540;28;20469;-69
2022/08/21 04:01:32;;;;;;;;;;;23.00;99.90;;;;;;5050681;28;20530;-69
2022/08/21 04:03:59;;;;;;;11.23;2.97;;;23.10;99.90;;;;;;5048811;28;19909;-69
2022/08/21 04:06:26;;;;;;;7.68;2.88;;;23.00;99.90;;;;;;5050381;28;20029;-69
2022/08/21 04:08:53;;;;;;;10.38;3.08;;;23.00;99.90;;;;;;5050308;28;20021;-70
2022/08/21 04:11:19;;;;;;;9.35;2.97;;;22.90;99.90;;;;;;5050104;28;20082;-69
2022/08/21 04:13:45;;;;;;;7.55;2.63;;;22.90;99.90;;;;;;5050072;28;20021;-69
2022/08/21 04:16:12;;;;;;;10.23;2.78;;;22.90;99.90;;;;;;5050280;28;20063;-69
2022/08/21 04:18:38;;;;;;;;;;;23.00;99.90;;;;;;5050784;28;20035;-69
2022/08/21 04:21:07;;;;;;;12.45;3.22;;;23.00;99.90;;;;;;5049954;28;19904;-69
2022/08/21 04:23:33;;;;;;;9.38;2.58;;;23.00;99.90;;;;;;5049997;28;20101;-69
2022/08/21 04:25:59;;;;;;;;;;;22.90;99.90;;;;;;5050426;28;20029;-69
2022/08/21 04:28:27;;;;;;;7.75;2.90;;;23.00;99.90;;;;;;5049800;28;19971;-69
2022/08/21 04:30:54;;;;;;;10.07;2.53;;;23.00;99.90;;;;;;5050045;28;20112;-69
2022/08/21 04:33:21;;;;;;;9.02;2.70;;;23.10;99.90;;;;;;5050202;28;20022;-69
2022/08/21 04:35:49;;;;;;;5.88;2.10;;;23.10;99.90;;;;;;5050233;28;20465;-69
2022/08/21 04:38:15;;;;;;;7.50;2.42;;;23.20;99.90;;;;;;5049955;28;20025;-69
2022/08/21 04:40:41;;;;;;;7.18;3.00;;;23.20;99.90;;;;;;5050230;28;20060;-69
2022/08/21 04:43:10;;;;;;;10.85;2.78;;;23.20;99.90;;;;;;5053349;28;20052;-69
2022/08/21 04:45:39;;;;;;;10.57;3.10;;;23.10;99.90;;;;;;5053794;28;20025;-69
2022/08/21 04:48:08;;;;;;;9.45;3.13;;;23.20;99.90;;;;;;5053855;28;20025;-69
2022/08/21 04:50:40;;;;;;;10.48;4.63;;;23.20;99.90;;;;;;5053580;28;20052;-69
2022/08/21 04:53:13;;;;;;;11.23;3.95;;;23.10;99.90;;;;;;5053630;28;20048;-69
2022/08/21 04:55:41;;;;;;;11.10;4.25;;;23.10;99.90;;;;;;5054006;28;20326;-69
2022/08/21 04:58:12;;;;;;;12.85;4.32;;;23.10;99.90;;;;;;5053950;28;20361;-69
2022/08/21 05:00:38;;;;;;;10.35;3.35;;;23.10;99.90;;;;;;5053992;28;20033;-69
2022/08/21 05:03:06;;;;;;;11.23;3.30;;;23.20;99.90;;;;;;5053566;28;20472;-69
2022/08/21 05:05:32;;;;;;;8.45;3.75;;;23.30;99.90;;;;;;5054017;28;20113;-69
2022/08/21 05:08:01;;;;;;;10.48;3.42;;;23.40;99.90;;;;;;5053661;28;20021;-70
2022/08/21 05:10:27;;;;;;;8.40;3.60;;;23.40;99.90;;;;;;5053307;28;20081;-69
2022/08/21 05:12:54;;;;;;;9.27;2.70;;;23.30;99.90;;;;;;5053341;28;20155;-69
2022/08/21 05:15:20;;;;;;;8.18;2.88;;;23.80;99.90;;;;;;5053138;28;20028;-69
2022/08/21 05:17:47;;;;;;;6.45;2.33;;;24.40;99.90;;;;;;5053612;28;20028;-69
2022/08/21 05:20:14;;;;;;;6.50;2.00;;;25.20;99.90;;;;;;5053504;28;20021;-69
2022/08/21 05:22:41;;;;;;;6.38;1.98;;;26.30;99.90;;;;;;5053120;28;20124;-69
2022/08/21 05:25:10;;;;;;;6.85;1.80;;;27.30;99.90;;;;;;5053236;28;20028;-69
2022/08/21 05:27:36;;;;;;;7.85;2.33;;;28.40;99.90;;;;;;5051317;28;20047;-70
2022/08/21 05:30:03;;;;;;;5.70;1.75;;;30.10;99.90;;;;;;5053326;28;20128;-69
2022/08/21 05:32:29;;;;;;;6.38;1.85;;;32.20;99.90;;;;;;5052991;28;20398;-70
2022/08/21 05:34:55;;;;;;;7.75;2.00;;;33.80;99.90;;;;;;5051489;28;20025;-70
2022/08/21 05:37:21;;;;;;;5.82;1.88;;;35.60;97.90;;;;;;5053342;28;20108;-70
2022/08/21 05:39:47;;;;;;;5.53;1.40;;;37.10;95.20;;;;;;5052995;28;20111;-70
2022/08/21 05:42:13;;;;;;;6.10;1.42;;;38.40;93.10;;;;;;5053207;28;20041;-70
2022/08/21 05:44:39;;;;;;;4.32;1.33;;;39.10;91.40;;;;;;5053024;28;20080;-71
2022/08/21 05:47:08;;;;;;;6.25;1.55;;;38.70;90.60;;;;;;5053087;28;20469;-70
2022/08/21 05:49:34;;;;;;;4.90;1.60;;;38.80;90.30;;;;;;5052636;28;20462;-71
2022/08/21 05:52:01;;;;;;;5.80;1.60;;;38.80;90.40;;;;;;5052223;28;20044;-71
2022/08/21 05:54:27;;;;;;;6.15;1.50;;;39.10;88.40;;;;;;5052607;28;20074;-70
2022/08/21 05:56:54;;;;;;;5.93;1.50;;;38.20;88.20;;;;;;5052540;28;20060;-70
2022/08/21 05:59:21;;;;;;;5.78;1.55;;;36.60;90.60;;;;;;5051154;28;20021;-71
2022/08/21 06:01:47;;;;;;;8.93;2.03;;;37.40;90.80;;;;;;5052201;28;20029;-71
2022/08/21 06:04:13;;;;;;;7.07;1.67;;;38.20;89.20;;;;;;5052332;28;20017;-70
2022/08/21 06:06:39;;;;;;;5.75;1.40;;;38.30;89.70;;;;;;5052877;28;20196;-71
2022/08/21 06:09:06;;;;;;;4.93;1.60;;;38.50;88.90;;;;;;5052899;28;20039;-71
2022/08/21 06:11:33;;;;;;;5.30;1.63;;;39.10;87.00;;;;;;5052546;28;20474;-70
2022/08/21 06:13:59;;;;;;;5.90;1.70;;;40.40;85.60;;;;;;5052558;28;20084;-71
2022/08/21 06:16:27;;;;;;;7.13;2.08;;;40.90;83.40;;;;;;5052223;28;20231;-70
2022/08/21 06:18:53;;;;;;;7.05;3.03;;;40.60;83.40;;;;;;5052786;28;20025;-70
2022/08/21 06:21:19;;;;;;;10.77;4.55;;;41.10;82.70;;;;;;5052750;28;20025;-71
2022/08/21 06:23:45;;;;;;;13.13;5.32;;;41.70;81.40;;;;;;5052703;28;20032;-71
2022/08/21 06:26:13;;;;;;;12.05;4.63;;;42.10;80.20;;;;;;5052278;28;20027;-71
2022/08/21 06:28:40;;;;;;;10.27;3.42;;;43.20;78.20;;;;;;5052219;28;20131;-71
2022/08/21 06:31:18;;;;;;;10.23;3.47;;;42.70;76.70;;;;;;5052737;28;20110;-71
2022/08/21 06:33:44;;;;;;;7.45;2.55;;;43.00;75.80;;;;;;5051153;28;20429;-71
2022/08/21 06:36:10;;;;;;;6.25;2.33;;;42.70;75.40;;;;;;5052214;28;20029;-71
2022/08/21 06:38:37;;;;;;;7.07;1.92;;;42.90;74.80;;;;;;5052258;28;20029;-70
2022/08/21 06:41:04;;;;;;;11.43;2.00;;;42.60;74.00;;;;;;5052248;28;20113;-69
2022/08/21 06:43:30;;;;;;;6.13;2.00;;;42.40;75.60;;;;;;5052298;28;20044;-69
2022/08/21 06:45:56;;;;;;;6.93;2.17;;;43.20;73.80;;;;;;5052182;28;20021;-69
2022/08/21 06:48:22;;;;;;;8.45;2.00;;;43.80;72.70;;;;;;5051914;28;20151;-69
2022/08/21 06:50:49;;;;;;;7.18;2.10;;;44.80;71.70;;;;;;5051951;28;20346;-69
2022/08/21 06:53:18;;;;;;;7.40;2.22;;;45.40;69.90;;;;;;5052023;28;20029;-70
2022/08/21 06:55:45;;;;;;;8.50;2.10;;;45.80;68.90;;;;;;5051698;28;20037;-69
2022/08/21 06:58:11;;;;;;;5.97;2.13;;;46.30;67.80;;;;;;5050377;28;20025;-71
2022/08/21 07:00:45;;;;;;;7.60;2.75;;;46.70;66.20;;;;;;5051886;28;20465;-70
2022/08/21 07:03:35;;;;;;;7.77;3.10;;;46.40;65.40;;;;;;5052103;28;20044;-71
2022/08/21 07:06:02;;;;;;;9.55;3.33;;;45.80;65.20;;;;;;5051598;28;20033;-71
2022/08/21 07:08:29;;;;;;;9.75;3.03;;;45.10;65.80;;;;;;5052007;28;20598;-70
2022/08/21 07:10:57;;;;;;;7.78;2.50;;;45.50;67.00;;;;;;5051573;28;20033;-70
2022/08/21 07:13:23;;;;;;;13.43;3.30;;;45.80;66.30;;;;;;5051274;28;20021;-71
2022/08/21 07:15:50;;;;;;;9.50;2.80;;;44.50;67.70;;;;;;5051580;28;20041;-71
2022/08/21 07:18:16;;;;;;;6.75;2.53;;;44.60;68.00;;;;;;5051247;28;20359;-71
2022/08/21 07:20:43;;;;;;;9.88;3.28;;;44.20;69.10;;;;;;5051521;28;20104;-70
2022/08/21 07:23:15;;;;;;;7.63;3.00;;;44.20;69.10;;;;;;5051344;28;20424;-71
2022/08/21 07:25:41;;;;;;;10.48;2.80;;;42.50;69.90;;;;;;5051538;28;20617;-71
2022/08/21 07:28:08;;;;;;;8.25;3.03;;;42.10;70.60;;;;;;5050939;28;20138;-70
2022/08/21 07:30:34;;;;;;;9.98;2.58;;;40.50;71.30;;;;;;5050958;28;20024;-70
2022/08/21 07:33:00;;;;;;;5.97;2.10;;;40.00;72.60;;;;;;5051095;28;20071;-70
2022/08/21 07:35:27;;;;;;;7.72;1.98;;;39.50;73.40;;;;;;5051366;28;20178;-70
2022/08/21 07:37:54;;;;;;;8.02;1.75;;;38.60;73.90;;;;;;5050971;28;20025;-70
2022/08/21 07:40:20;;;;;;;7.15;2.08;;;37.50;75.10;;;;;;5051084;28;20091;-70
2022/08/21 07:42:49;;;;;;;5.00;1.40;;;36.60;75.10;;;;;;5050854;28;20028;-72
2022/08/21 07:45:15;;;;;;;4.10;1.42;;;36.30;75.50;;;;;;5050792;28;20025;-70
2022/08/21 07:47:42;;;;;;;6.22;1.40;;;36.10;75.50;;;;;;5050960;28;20032;-70
2022/08/21 07:50:08;;;;;;;4.13;1.38;;;36.20;75.40;;;;;;5050663;28;20028;-70
2022/08/21 07:52:35;;;;;;;7.45;1.90;;;36.30;74.30;;;;;;5050883;28;20025;-70
2022/08/21 07:55:01;;;;;;;4.65;1.50;;;36.20;75.50;;;;;;5050368;28;20461;-69
2022/08/21 07:57:27;;;;;;;6.28;1.92;;;36.20;74.00;;;;;;5050340;28;20032;-70
2022/08/21 07:59:53;;;;;;;11.27;2.42;;;36.20;75.50;;;;;;5049011;28;20021;-70
2022/08/21 08:02:29;;;;;;;8.35;2.10;;;35.90;82.20;;;;;;5050869;28;20025;-70
2022/08/21 08:05:00;;;;;;;18.80;2.97;;;35.90;83.60;;;;;;5050650;28;20021;-70
2022/08/21 08:07:27;;;;;;;11.95;2.25;;;36.10;84.10;;;;;;5050971;28;20032;-70
2022/08/21 08:09:53;;;;;;;8.50;2.55;;;36.00;83.80;;;;;;5050811;28;20025;-71
2022/08/21 08:12:19;;;;;;;9.02;1.98;;;35.70;84.90;;;;;;5050556;28;20025;-70
2022/08/21 08:14:46;;;;;;;9.77;2.30;;;35.20;86.50;;;;;;5050412;28;20021;-70
2022/08/21 08:17:13;;;;;;;13.13;2.35;;;35.20;87.30;;;;;;5050133;28;20119;-71
2022/08/21 08:19:39;;;;;;;8.15;2.17;;;35.40;86.90;;;;;;5051253;28;20500;-70
2022/08/21 08:22:18;;;;;;;10.30;2.13;;;35.40;87.10;;;;;;5051214;28;20130;-70
2022/08/21 08:24:46;;;;;;;9.43;2.30;;;34.90;87.80;;;;;;5051039;28;20524;-70
2022/08/21 08:27:12;;;;;;;7.63;2.30;;;34.50;89.70;;;;;;5050719;28;20036;-70
2022/08/21 08:29:38;;;;;;;12.55;2.92;;;34.30;90.00;;;;;;5051209;28;20175;-70
2022/08/21 08:32:07;;;;;;;6.15;2.30;;;34.00;90.20;;;;;;5049547;28;20433;-70
2022/08/21 08:34:34;;;;;;;9.20;2.50;;;34.00;90.60;;;;;;5050976;28;20021;-70
2022/08/21 08:37:01;;;;;;;9.88;2.38;;;33.90;91.20;;;;;;5050836;28;20029;-70
2022/08/21 08:39:27;;;;;;;6.05;2.13;;;33.90;90.90;;;;;;5051040;28;20488;-71
2022/08/21 08:42:19;;;;;;;10.10;2.20;;;33.90;91.00;;;;;;5050972;28;20032;-70
2022/08/21 08:44:47;;;;;;;8.65;2.53;;;33.90;91.10;;;;;;5050224;28;20103;-70
2022/08/21 08:47:15;;;;;;;11.18;2.50;;;33.90;91.30;;;;;;5051042;28;20041;-70
2022/08/21 08:49:53;;;;;;;10.38;2.67;;;33.60;91.70;;;;;;5050635;28;20189;-70
2022/08/21 08:52:29;;;;;;;10.27;2.28;;;33.60;91.90;;;;;;5050424;28;20086;-71
2022/08/21 08:55:04;;;;;;;9.13;2.33;;;33.70;91.20;;;;;;5049839;28;20221;-70
2022/08/21 08:57:31;;;;;;;8.80;2.00;;;33.90;91.40;;;;;;5049821;28;20040;-70
2022/08/21 09:00:01;;;;;;;9.05;2.25;;;33.90;91.50;;;;;;5050303;28;20028;-70
2022/08/21 09:02:27;;;;;;;10.38;2.60;;;33.90;91.20;;;;;;5049769;28;20100;-71
2022/08/21 09:04:54;;;;;;;9.52;2.50;;;34.00;91.30;;;;;;5048402;28;20052;-70
2022/08/21 09:07:38;;;;;;;9.38;2.00;;;34.10;91.60;;;;;;5050177;28;20446;-70
2022/08/21 09:10:28;;;;;;;9.85;2.22;;;34.10;90.90;;;;;;5050231;28;20053;-70
2022/08/21 09:13:23;;;;;;;12.20;2.15;;;33.90;91.70;;;;;;5050269;28;20067;-70
2022/08/21 09:16:01;;;;;;;10.00;2.77;;;34.00;91.30;;;;;;5049772;28;20493;-70
2022/08/21 09:18:39;;;;;;;7.55;2.50;;;34.00;91.60;;;;;;5049971;28;20248;-70
2022/08/21 09:21:35;;;;;;;9.70;2.35;;;34.10;91.70;;;;;;5050323;28;20032;-71
2022/08/21 09:24:14;;;;;;;8.43;2.05;;;34.30;91.00;;;;;;5050398;28;20421;-71
2022/08/21 09:26:57;;;;;;;11.98;2.35;;;34.30;92.00;;;;;;5050386;28;20142;-70
2022/08/21 09:29:29;;;;;;;10.45;1.73;;;34.10;92.60;;;;;;5053149;28;20048;-70
2022/08/21 09:31:55;;;;;;;13.55;2.65;;;33.50;91.90;;;;;;5053876;28;20547;-71
2022/08/21 09:34:29;;;;;;;;;;;33.20;94.30;;;;;;5054206;28;20029;-70
2022/08/21 09:36:55;;;;;;;14.02;3.40;;;33.30;94.60;;;;;;5053474;28;20312;-70
2022/08/21 09:39:37;;;;;;;14.05;2.90;;;33.30;94.30;;;;;;5051845;28;20047;-70
2022/08/21 09:42:09;;;;;;;11.57;2.60;;;33.30;93.40;;;;;;5053456;28;20052;-71
2022/08/21 09:44:40;;;;;;;12.70;2.90;;;33.30;94.10;;;;;;5053278;28;20473;-70
2022/08/21 09:47:08;;;;;;;11.90;2.60;;;33.20;94.60;;;;;;5053135;28;20495;-71
2022/08/21 09:49:37;;;;;;;13.32;2.38;;;33.10;95.20;;;;;;5053421;28;20056;-70
2022/08/21 09:52:16;;;;;;;10.90;2.45;;;33.00;95.30;;;;;;5053232;28;20488;-71
2022/08/21 09:54:46;;;;;;;10.50;2.33;;;33.00;95.20;;;;;;5052996;28;20070;-70
2022/08/21 10:00:16;;;;;;;9.27;2.75;;;33.20;94.80;;;;;;5052851;28;20551;-69
2022/08/21 10:02:42;;;;;;;11.40;2.60;;;33.00;95.00;;;;;;5053031;28;20434;-71
2022/08/21 10:05:28;;;;;;;;;;;32.90;96.00;;;;;;5053928;28;20472;-69
2022/08/21 10:07:54;;;;;;;19.45;3.10;;;32.90;96.10;;;;;;5052465;28;19904;-72
2022/08/21 10:10:30;;;;;;;15.07;3.20;;;32.90;96.00;;;;;;5052801;28;20025;-70
2022/08/21 10:13:13;;;;;;;9.55;2.40;;;32.90;95.90;;;;;;5052920;28;20029;-70
2022/08/21 10:15:59;;;;;;;14.02;2.70;;;32.80;96.20;;;;;;5052521;28;20482;-71
2022/08/21 10:18:42;;;;;;;9.55;2.60;;;32.80;96.40;;;;;;5052884;28;20025;-71
2022/08/21 10:21:18;;;;;;;8.10;1.88;;;32.70;96.90;;;;;;5052751;28;20025;-70
2022/08/21 10:24:20;;;;;;;13.13;2.63;;;32.80;97.00;;;;;;5051093;28;20029;-72
2022/08/21 10:27:00;;;;;;;12.50;2.50;;;32.80;97.30;;;;;;5044236;28;20045;-70
2022/08/21 10:29:38;;;;;;;12.88;2.72;;;32.60;97.30;;;;;;5052641;28;20050;-71
2022/08/21 10:32:26;;;;;;;12.32;3.08;;;32.80;97.50;;;;;;5052500;28;20025;-71
2022/08/21 10:34:58;;;;;;;10.63;2.47;;;32.80;97.60;;;;;;5052490;28;20036;-72
2022/08/21 10:37:30;;;;;;;17.33;3.42;;;32.60;98.40;;;;;;5052319;28;20112;-70
2022/08/21 10:40:17;;;;;;;19.60;3.10;;;32.10;99.10;;;;;;5050547;28;20033;-70
2022/08/21 10:42:55;;;;;;;16.73;2.88;;;32.10;99.70;;;;;;5052374;28;20090;-71
2022/08/21 10:45:39;;;;;;;10.68;2.88;;;32.20;99.80;;;;;;5052405;28;20071;-70
2022/08/21 10:48:12;;;;;;;21.02;3.25;;;32.30;99.90;;;;;;5052321;28;20017;-70
2022/08/21 10:50:50;;;;;;;9.88;2.45;;;32.40;99.90;;;;;;5052249;28;20116;-71
2022/08/21 10:53:25;;;;;;;16.88;3.53;;;32.60;99.70;;;;;;5052027;28;20108;-70
2022/08/21 10:56:15;;;;;;;22.02;3.30;;;32.40;99.90;;;;;;5052237;28;20571;-71
2022/08/21 10:58:59;;;;;;;19.95;3.38;;;32.30;99.90;;;;;;5051838;28;20108;-70
2022/08/21 11:01:45;;;;;;;18.87;3.20;;;32.20;99.90;;;;;;5052022;28;20113;-70
2022/08/21 11:04:23;;;;;;;8.55;2.20;;;32.30;99.90;;;;;;5052177;28;20078;-70
2022/08/21 11:07:18;;;;;;;9.95;2.22;;;32.60;97.20;;;;;;5051884;28;20036;-70
2022/08/21 11:09:47;;;;;;;9.07;2.00;;;32.90;95.60;;;;;;5051855;28;20037;-70
2022/08/21 11:12:47;;;;;;;12.85;2.03;;;32.80;94.80;;;;;;5051342;28;20028;-70
2022/08/21 11:15:24;;;;;;;10.38;2.10;;;32.90;95.90;;;;;;5051332;28;20098;-69
2022/08/21 11:18:17;;;;;;;6.68;2.08;;;33.10;96.30;;;;;;5051863;28;20035;-70
2022/08/21 11:21:05;;;;;;;11.40;2.30;;;33.00;95.60;;;;;;5048958;28;20040;-70
2022/08/21 11:23:41;;;;;;;8.52;1.92;;;33.20;95.30;;;;;;5051770;28;20128;-70
2022/08/21 11:26:32;;;;;;;17.75;2.83;;;33.30;95.30;;;;;;5051559;28;20378;-70
2022/08/21 11:29:06;;;;;;;15.15;2.65;;;33.40;96.30;;;;;;5051125;28;20088;-70
2022/08/21 11:31:59;;;;;;;12.48;2.47;;;33.50;97.30;;;;;;5049841;28;20043;-71
2022/08/21 11:34:57;;;;;;;15.38;2.30;;;33.60;97.30;;;;;;5051231;28;20385;-70
2022/08/21 11:37:48;;;;;;;14.13;2.70;;;33.40;97.50;;;;;;5049974;28;20450;-70
2022/08/21 11:40:46;;;;;;;14.18;2.90;;;33.30;98.40;;;;;;5049570;28;20021;-70
2022/08/21 11:43:20;;;;;;;13.13;2.20;;;33.20;98.40;;;;;;5051080;28;20036;-71
2022/08/21 11:46:01;;;;;;;17.17;2.72;;;33.40;97.90;;;;;;5051253;28;20021;-71
2022/08/21 11:49:00;;;;;;;13.52;2.30;;;33.50;98.30;;;;;;5051325;28;20025;-70
2022/08/21 11:51:43;;;;;;;15.43;2.55;;;33.40;99.10;;;;;;5048884;28;20085;-70
2022/08/21 11:54:19;;;;;;;11.73;2.63;;;33.40;97.80;;;;;;5051180;28;20025;-70
2022/08/21 11:56:57;;;;;;;17.45;2.55;;;33.30;98.00;;;;;;5049360;28;20037;-70
2022/08/21 11:59:33;;;;;;;12.73;2.22;;;33.20;97.80;;;;;;5050765;28;20354;-70
2022/08/21 12:01:59;;;;;;;16.30;2.60;;;33.00;97.50;;;;;;5051146;28;20032;-70
2022/08/21 12:04:41;;;;;;;10.32;2.55;;;33.10;97.60;;;;;;5050589;28;20104;-70
2022/08/21 12:07:15;;;;;;;13.30;2.30;;;33.30;97.50;;;;;;5050957;28;20111;-70
2022/08/21 12:09:51;;;;;;;16.33;2.47;;;33.40;96.90;;;;;;5050627;28;20035;-70
2022/08/21 12:12:29;;;;;;;13.35;2.00;;;33.40;96.70;;;;;;5050885;28;20050;-70
2022/08/21 12:15:27;;;;;;;8.70;2.05;;;33.40;96.80;;;;;;5050623;28;20033;-70
2022/08/21 12:18:01;;;;;;;12.10;2.00;;;33.50;96.80;;;;;;5050562;28;20484;-71
2022/08/21 12:20:41;;;;;;;9.20;1.98;;;33.70;96.50;;;;;;5050946;28;20048;-70
2022/08/21 12:23:10;;;;;;;17.02;2.53;;;33.70;96.00;;;;;;5049082;28;20091;-70
2022/08/21 12:26:01;;;;;;;62.10;4.65;;;33.80;95.70;;;;;;5050483;28;20500;-70
2022/08/21 12:28:29;;;;;;;12.40;2.05;;;34.00;95.30;;;;;;5050437;28;20496;-70
2022/08/21 12:30:56;;;;;;;9.43;1.80;;;34.10;95.20;;;;;;5050968;28;20122;-70
2022/08/21 12:33:31;;;;;;;10.70;2.50;;;34.20;95.10;;;;;;5050533;28;20052;-70
2022/08/21 12:36:13;;;;;;;14.77;2.35;;;34.30;94.90;;;;;;5050600;28;20037;-70
2022/08/21 12:38:48;;;;;;;11.50;2.53;;;33.60;95.60;;;;;;5050496;28;20040;-70
2022/08/21 12:41:30;;;;;;;12.13;2.70;;;33.40;96.00;;;;;;5050760;28;20381;-70
2022/08/21 12:44:07;;;;;;;11.13;1.42;;;33.10;96.60;;;;;;5050527;28;20051;-70
2022/08/21 12:47:02;;;;;;;8.82;1.92;;;33.20;96.90;;;;;;5050586;28;20469;-70
2022/08/21 12:49:43;;;;;;;;;;;33.30;96.60;;;;;;5051154;28;20021;-70
2022/08/21 12:52:21;;;;;;;14.25;2.00;;;33.20;96.70;;;;;;5050306;28;20003;-70
2022/08/21 12:54:47;;;;;;;11.68;1.98;;;33.20;97.00;;;;;;5048773;28;20032;-70
2022/08/21 12:57:24;;;;;;;10.25;2.30;;;33.10;97.30;;;;;;5050503;28;20024;-69
2022/08/21 13:00:00;;;;;;;15.88;2.78;;;33.10;97.30;;;;;;5050736;28;20017;-70
2022/08/21 13:02:31;;;;;;;10.00;2.67;;;33.20;97.40;;;;;;5050989;28;20032;-70
2022/08/21 13:05:01;;;;;;;8.27;2.03;;;32.90;97.80;;;;;;5054245;28;20029;-71
2022/08/21 13:07:33;;;;;;;11.05;2.22;;;32.60;98.40;;;;;;5053865;28;20469;-70